Time;durP1;ratioP1;P1;durP2;ratioP2;P2;SDS_P1;SDS_P2;PMS_P1;PMS_P2;Temp;Humidity;BMP_temperature;BMP_pressure;BME280_temperature;BME280_humidity;BME280_pressure;Samples;Min_cycle;Max_cycle;Signal;HPM_P1;HPM_P2
2022/10/17 00:01:17;;;;;;;;;0.00;0.00;;;;;;;;5070606;28;8821;-91
2022/10/17 00:03:42;;;;;;;;;0.00;0.00;;;;;;;;5071139;28;9566;-92
2022/10/17 00:06:08;;;;;;;;;0.00;0.00;;;;;;;;5060921;28;8897;-90
2022/10/17 00:08:34;;;;;;;;;0.00;0.00;;;;;;;;5050091;28;8819;-91
2022/10/17 00:11:01;;;;;;;;;0.00;0.00;;;;;;;;5050746;28;11437;-91
2022/10/17 00:13:27;;;;;;;;;0.00;0.00;;;;;;;;5050825;28;8810;-91
2022/10/17 00:15:52;;;;;;;;;0.00;0.00;;;;;;;;5052531;28;11433;-90
2022/10/17 00:18:17;;;;;;;;;0.00;0.00;;;;;;;;5052359;28;9042;-89
2022/10/17 00:20:42;;;;;;;;;0.00;0.00;;;;;;;;5070157;28;8832;-90
2022/10/17 00:23:08;;;;;;;;;0.00;0.00;;;;;;;;5070281;28;8797;-89
2022/10/17 00:25:33;;;;;;;;;0.00;0.00;;;;;;;;5053059;28;8938;-91
2022/10/17 00:27:58;;;;;;;;;0.00;0.00;;;;;;;;5020964;28;8838;-90
2022/10/17 00:30:24;;;;;;;;;0.00;0.00;;;;;;;;5040025;28;8841;-91
2022/10/17 00:32:49;;;;;;;;;0.00;0.00;;;;;;;;5052705;28;8923;-91
2022/10/17 00:35:14;;;;;;;;;0.00;0.00;;;;;;;;5070299;28;8793;-91
2022/10/17 00:37:39;;;;;;;;;0.00;0.00;;;;;;;;5051794;28;9902;-90
2022/10/17 00:40:05;;;;;;;;;0.00;0.00;;;;;;;;5070577;28;8808;-91
2022/10/17 00:42:31;;;;;;;;;0.00;0.00;;;;;;;;5052533;28;8821;-91
2022/10/17 00:44:58;;;;;;;;;0.00;0.00;;;;;;;;5051345;28;12207;-89
2022/10/17 00:47:23;;;;;;;;;0.00;0.00;;;;;;;;5070874;28;8855;-91
2022/10/17 00:49:49;;;;;;;;;0.00;0.00;;;;;;;;5054682;28;11449;-90
2022/10/17 00:52:16;;;;;;;;;0.00;0.00;;;;;;;;5074688;28;8805;-90
2022/10/17 00:54:46;;;;;;;;;0.00;0.00;;;;;;;;5062128;28;8814;-90
2022/10/17 00:57:12;;;;;;;;;0.00;0.00;;;;;;;;5036338;28;11434;-90
2022/10/17 00:59:39;;;;;;;;;0.00;0.00;;;;;;;;5032050;28;11575;-90
2022/10/17 01:02:15;;;;;;;;;0.00;0.00;;;;;;;;5050252;28;8784;-91
2022/10/17 01:04:42;;;;;;;;;0.00;0.00;;;;;;;;5050912;28;11395;-90
2022/10/17 01:07:07;;;;;;;;;0.00;0.00;;;;;;;;5031899;28;11454;-91
2022/10/17 01:09:33;;;;;;;;;0.00;0.00;;;;;;;;5056926;28;12238;-90
2022/10/17 01:12:08;;;;;;;;;0.00;0.00;;;;;;;;5055901;28;8883;-92
2022/10/17 01:14:52;;;;;;;;;0.00;0.00;;;;;;;;5073748;28;8773;-91
2022/10/17 01:17:32;;;;;;;;;0.00;0.00;;;;;;;;5073848;28;11413;-90
2022/10/17 01:19:57;;;;;;;;;0.00;0.00;;;;;;;;5055483;28;11531;-90
2022/10/17 01:22:26;;;;;;;;;0.00;0.00;;;;;;;;5073777;28;11535;-92
2022/10/17 01:24:57;;;;;;;;;0.00;0.00;;;;;;;;5073739;28;8948;-91
2022/10/17 01:27:32;;;;;;;;;0.00;0.00;;;;;;;;5055794;28;11423;-92
2022/10/17 01:30:27;;;;;;;;;0.00;0.00;;;;;;;;5048183;28;11467;-91
2022/10/17 01:33:07;;;;;;;;;0.00;0.00;;;;;;;;5053390;28;11410;-92
2022/10/17 01:35:38;;;;;;;;;0.00;0.00;;;;;;;;5035649;28;11460;-92
2022/10/17 01:38:24;;;;;;;;;0.00;0.00;;;;;;;;5035215;28;11426;-91
2022/10/17 01:40:54;;;;;;;;;0.00;0.00;;;;;;;;5035638;28;11472;-92
2022/10/17 01:43:24;;;;;;;;;0.00;0.00;;;;;;;;5072782;28;11614;-91
2022/10/17 01:45:59;;;;;;;;;0.00;0.00;;;;;;;;5073591;28;11385;-91
2022/10/17 01:48:26;;;;;;;;;0.00;0.00;;;;;;;;5073147;28;11404;-91
2022/10/17 01:51:10;;;;;;;;;0.00;0.00;;;;;;;;5073402;28;11471;-92
2022/10/17 01:53:38;;;;;;;;;0.00;0.00;;;;;;;;5054694;28;11416;-92
2022/10/17 01:56:05;;;;;;;;;0.00;0.00;;;;;;;;5070597;28;12209;-92
2022/10/17 01:58:32;;;;;;;;;0.00;0.00;;;;;;;;5054740;28;11401;-92
2022/10/17 02:01:04;;;;;;;;;0.00;0.00;;;;;;;;5054840;28;11440;-92
2022/10/17 02:03:30;;;;;;;;;0.00;0.00;;;;;;;;5072727;28;11392;-90
2022/10/17 02:05:55;;;;;;;;;0.00;0.00;;;;;;;;5072744;28;11401;-90
2022/10/17 02:08:28;;;;;;;;;0.00;0.00;;;;;;;;5054454;28;8859;-90
2022/10/17 02:10:56;;;;;;;;;0.00;0.00;;;;;;;;5050521;28;8807;-91
2022/10/17 02:13:48;;;;;;;;;0.00;0.00;;;;;;;;5036659;28;11421;-91
2022/10/17 02:16:32;;;;;;;;;0.00;0.00;;;;;;;;5036135;28;11426;-92
2022/10/17 02:19:15;;;;;;;;;0.00;0.00;;;;;;;;5036220;28;11425;-91
2022/10/17 02:21:48;;;;;;;;;0.00;0.00;;;;;;;;5034765;28;12220;-91
2022/10/17 02:24:13;;;;;;;;;0.00;0.00;;;;;;;;5037906;28;11366;-90
2022/10/17 02:26:52;;;;;;;;;0.00;0.00;;;;;;;;5039717;28;11442;-89
2022/10/17 02:29:25;;;;;;;;;0.00;0.00;;;;;;;;5056293;28;8823;-90
2022/10/17 02:32:05;;;;;;;;;0.00;0.00;;;;;;;;5056293;28;11395;-91
2022/10/17 02:34:33;;;;;;;;;0.00;0.00;;;;;;;;5034913;28;11430;-91
2022/10/17 02:37:00;;;;;;;;;0.00;0.00;;;;;;;;5035167;28;11473;-91
2022/10/17 02:39:26;;;;;;;;;0.00;0.00;;;;;;;;5052251;28;11449;-91
2022/10/17 02:41:53;;;;;;;;;0.00;0.00;;;;;;;;5052414;28;11513;-90
2022/10/17 02:44:20;;;;;;;;;0.00;0.00;;;;;;;;5034320;28;11430;-90
2022/10/17 02:46:51;;;;;;;;;0.00;0.00;;;;;;;;5034119;28;11513;-91
2022/10/17 02:49:22;;;;;;;;;0.00;0.00;;;;;;;;5035158;28;11430;-91
2022/10/17 02:51:53;;;;;;;;;0.00;0.00;;;;;;;;5034417;28;11438;-91
2022/10/17 02:54:38;;;;;;;;;0.00;0.00;;;;;;;;5033936;28;11426;-90
2022/10/17 02:57:16;;;;;;;;;0.00;0.00;;;;;;;;5033973;28;11415;-90
2022/10/17 02:59:44;;;;;;;;;0.00;0.00;;;;;;;;5032755;28;11423;-90
2022/10/17 03:02:09;;;;;;;;;0.00;0.00;;;;;;;;5034168;28;11430;-90
2022/10/17 03:04:34;;;;;;;;;0.00;0.00;;;;;;;;5052477;28;11402;-90
2022/10/17 03:06:59;;;;;;;;;0.00;0.00;;;;;;;;5051986;28;8830;-90
2022/10/17 03:09:24;;;;;;;;;0.00;0.00;;;;;;;;5048194;28;9366;-89
2022/10/17 03:11:50;;;;;;;;;0.00;0.00;;;;;;;;5071539;28;8833;-91
2022/10/17 03:14:15;;;;;;;;;0.00;0.00;;;;;;;;5053461;28;8827;-90
2022/10/17 03:16:40;;;;;;;;;0.00;0.00;;;;;;;;5053847;28;8807;-91
2022/10/17 03:19:06;;;;;;;;;0.00;0.00;;;;;;;;5053996;28;8816;-91
2022/10/17 03:21:31;;;;;;;;;0.00;0.00;;;;;;;;5053761;28;8801;-91
2022/10/17 03:23:57;;;;;;;;;0.00;0.00;;;;;;;;5072062;28;8805;-91
2022/10/17 03:26:22;;;;;;;;;0.00;0.00;;;;;;;;5069487;28;8909;-91
2022/10/17 03:28:47;;;;;;;;;0.00;0.00;;;;;;;;5070494;28;8858;-90
2022/10/17 03:31:13;;;;;;;;;0.00;0.00;;;;;;;;5053339;28;8842;-91
2022/10/17 03:33:39;;;;;;;;;0.00;0.00;;;;;;;;5071340;28;8804;-91
2022/10/17 03:36:06;;;;;;;;;0.00;0.00;;;;;;;;5071388;28;11424;-91
2022/10/17 03:38:32;;;;;;;;;0.00;0.00;;;;;;;;5069399;28;8813;-90
2022/10/17 03:40:57;;;;;;;;;0.00;0.00;;;;;;;;5047528;28;11447;-91
2022/10/17 03:43:22;;;;;;;;;0.00;0.00;;;;;;;;5052519;28;8805;-90
2022/10/17 03:45:48;;;;;;;;;0.00;0.00;;;;;;;;5053173;28;8910;-91
2022/10/17 03:48:13;;;;;;;;;0.00;0.00;;;;;;;;5071829;28;8819;-91
2022/10/17 03:50:38;;;;;;;;;0.00;0.00;;;;;;;;5071520;28;8941;-91
2022/10/17 03:53:03;;;;;;;;;0.00;0.00;;;;;;;;5069070;28;8811;-92
2022/10/17 03:55:28;;;;;;;;;0.00;0.00;;;;;;;;5053440;28;8904;-91
2022/10/17 03:57:53;;;;;;;;;0.00;0.00;;;;;;;;5057482;28;8965;-91
2022/10/17 04:00:19;;;;;;;;;0.00;0.00;;;;;;;;5057391;28;8797;-90
2022/10/17 04:02:44;;;;;;;;;0.00;0.00;;;;;;;;5076573;28;8810;-90
2022/10/17 04:05:09;;;;;;;;;0.00;0.00;;;;;;;;5057828;28;8813;-90
2022/10/17 04:07:36;;;;;;;;;0.00;0.00;;;;;;;;5041147;28;8843;-91
2022/10/17 04:10:01;;;;;;;;;0.00;0.00;;;;;;;;5032756;28;8819;-91
2022/10/17 04:12:26;;;;;;;;;0.00;0.00;;;;;;;;5053651;28;11394;-91
2022/10/17 04:14:51;;;;;;;;;0.00;0.00;;;;;;;;5062929;28;8801;-90
2022/10/17 04:17:16;;;;;;;;;0.00;0.00;;;;;;;;5071874;28;8894;-91
2022/10/17 04:19:42;;;;;;;;;0.00;0.00;;;;;;;;5070772;28;8801;-92
2022/10/17 04:22:07;;;;;;;;;0.00;0.00;;;;;;;;5052308;28;8817;-90
2022/10/17 04:24:32;;;;;;;;;0.00;0.00;;;;;;;;5052687;28;8890;-91
2022/10/17 04:26:57;;;;;;;;;0.00;0.00;;;;;;;;5052079;28;8829;-91
2022/10/17 04:29:24;;;;;;;;;0.00;0.00;;;;;;;;5052286;28;8864;-91
2022/10/17 04:31:51;;;;;;;;;0.00;0.00;;;;;;;;5052544;28;8790;-91
2022/10/17 04:34:16;;;;;;;;;0.00;0.00;;;;;;;;5055360;28;11436;-91
2022/10/17 04:36:41;;;;;;;;;0.00;0.00;;;;;;;;5035889;28;11457;-92
2022/10/17 04:39:06;;;;;;;;;0.00;0.00;;;;;;;;5050483;28;8812;-91
2022/10/17 04:41:31;;;;;;;;;0.00;0.00;;;;;;;;5044604;28;8922;-91
2022/10/17 04:43:57;;;;;;;;;0.00;0.00;;;;;;;;5051938;28;8944;-91
2022/10/17 04:46:22;;;;;;;;;0.00;0.00;;;;;;;;5052079;28;8817;-92
2022/10/17 04:48:47;;;;;;;;;0.00;0.00;;;;;;;;5070548;28;8813;-91
2022/10/17 04:51:13;;;;;;;;;0.00;0.00;;;;;;;;5052441;28;8793;-91
2022/10/17 04:53:39;;;;;;;;;0.00;0.00;;;;;;;;5069211;28;8804;-90
2022/10/17 04:56:08;;;;;;;;;0.00;0.00;;;;;;;;5042369;28;11450;-91
2022/10/17 04:58:34;;;;;;;;;0.00;0.00;;;;;;;;5050333;28;8802;-92
2022/10/17 05:01:03;;;;;;;;;0.00;0.00;;;;;;;;5031862;28;11407;-90
2022/10/17 05:03:28;;;;;;;;;0.00;0.00;;;;;;;;5039001;28;8877;-91
2022/10/17 05:05:53;;;;;;;;;0.00;0.00;;;;;;;;5052116;28;11439;-90
2022/10/17 05:08:18;;;;;;;;;0.00;0.00;;;;;;;;5051574;28;8886;-90
2022/10/17 05:10:45;;;;;;;;;0.00;0.00;;;;;;;;5066999;28;8834;-90
2022/10/17 05:13:10;;;;;;;;;0.00;0.00;;;;;;;;5051835;28;8805;-90
2022/10/17 05:15:36;;;;;;;;;0.00;0.00;;;;;;;;5051310;28;11442;-91
2022/10/17 05:18:01;;;;;;;;;0.00;0.00;;;;;;;;5052039;28;8883;-91
2022/10/17 05:20:27;;;;;;;;;0.00;0.00;;;;;;;;5047173;28;8827;-90
2022/10/17 05:22:52;;;;;;;;;0.00;0.00;;;;;;;;5042600;28;8913;-89
2022/10/17 05:25:18;;;;;;;;;0.00;0.00;;;;;;;;5049520;28;8795;-90
2022/10/17 05:27:43;;;;;;;;;0.00;0.00;;;;;;;;5065100;28;8836;-90
2022/10/17 05:30:08;;;;;;;;;0.00;0.00;;;;;;;;5044258;28;8859;-90
2022/10/17 05:32:34;;;;;;;;;0.00;0.00;;;;;;;;5052915;28;8868;-89
2022/10/17 05:34:59;;;;;;;;;0.00;0.00;;;;;;;;5056888;28;8811;-90
2022/10/17 05:37:24;;;;;;;;;0.00;0.00;;;;;;;;5072016;28;8815;-89
2022/10/17 05:39:49;;;;;;;;;0.00;0.00;;;;;;;;5052498;28;8838;-90
2022/10/17 05:42:15;;;;;;;;;0.00;0.00;;;;;;;;5049598;28;8827;-90
2022/10/17 05:44:40;;;;;;;;;0.00;0.00;;;;;;;;5034082;28;8801;-93
2022/10/17 05:47:06;;;;;;;;;0.00;0.00;;;;;;;;5042657;28;8825;-91
2022/10/17 05:49:31;;;;;;;;;0.00;0.00;;;;;;;;5066053;28;8817;-91
2022/10/17 05:51:56;;;;;;;;;0.00;0.00;;;;;;;;5040000;28;8859;-90
2022/10/17 05:54:21;;;;;;;;;0.00;0.00;;;;;;;;5046620;28;8867;-90
2022/10/17 05:56:50;;;;;;;;;0.00;0.00;;;;;;;;5051963;28;8917;-90
2022/10/17 05:59:15;;;;;;;;;0.00;0.00;;;;;;;;5072525;28;9586;-90
2022/10/17 06:01:41;;;;;;;;;0.00;0.00;;;;;;;;5071979;28;11437;-90
2022/10/17 06:04:06;;;;;;;;;0.00;0.00;;;;;;;;5054820;28;8805;-90
2022/10/17 06:06:31;;;;;;;;;0.00;0.00;;;;;;;;5071821;28;8840;-90
2022/10/17 06:08:56;;;;;;;;;0.00;0.00;;;;;;;;5072038;28;8907;-89
2022/10/17 06:11:21;;;;;;;;;0.00;0.00;;;;;;;;5054591;28;8912;-89
2022/10/17 06:13:47;;;;;;;;;0.00;0.00;;;;;;;;5072196;28;8809;-90
2022/10/17 06:16:12;;;;;;;;;1.00;1.00;;;;;;;;5054102;28;8811;-89
2022/10/17 06:18:37;;;;;;;;;0.00;0.00;;;;;;;;5072330;28;8793;-89
2022/10/17 06:21:07;;;;;;;;;0.00;0.00;;;;;;;;5055601;28;8819;-90
2022/10/17 06:23:32;;;;;;;;;0.00;0.00;;;;;;;;5034428;28;9743;-89
2022/10/17 06:25:59;;;;;;;;;0.00;0.00;;;;;;;;5035380;28;11450;-87
2022/10/17 06:28:24;;;;;;;;;0.00;0.00;;;;;;;;5052217;28;8822;-87
2022/10/17 06:30:49;;;;;;;;;0.00;0.00;;;;;;;;5045671;28;11433;-87
2022/10/17 06:33:15;;;;;;;;;0.00;0.00;;;;;;;;5072908;28;8811;-85
2022/10/17 06:35:40;;;;;;;;;0.00;0.00;;;;;;;;5072309;28;8931;-88
2022/10/17 06:38:05;;;;;;;;;0.00;0.00;;;;;;;;5071389;28;8867;-90
2022/10/17 06:40:31;;;;;;;;;0.00;0.00;;;;;;;;5053914;28;8835;-87
2022/10/17 06:42:56;;;;;;;;;0.00;0.00;;;;;;;;5072496;28;8801;-87
2022/10/17 06:45:22;;;;;;;;;0.00;0.00;;;;;;;;5052134;28;8830;-87
2022/10/17 06:47:48;;;;;;;;;0.00;0.00;;;;;;;;5071476;28;8940;-87
2022/10/17 06:50:13;;;;;;;;;0.00;0.00;;;;;;;;5068712;28;8801;-87
2022/10/17 06:52:38;;;;;;;;;0.00;0.00;;;;;;;;5070938;28;11560;-86
2022/10/17 06:55:04;;;;;;;;;0.00;0.00;;;;;;;;5072587;28;9025;-86
2022/10/17 06:57:29;;;;;;;;;0.00;0.00;;;;;;;;5072346;28;8809;-88
2022/10/17 06:59:56;;;;;;;;;0.00;0.00;;;;;;;;5058062;28;8841;-88
2022/10/17 07:02:22;;;;;;;;;0.00;0.00;;;;;;;;5056958;28;8877;-87
2022/10/17 07:04:48;;;;;;;;;0.00;0.00;;;;;;;;5060800;28;11449;-86
2022/10/17 07:07:13;;;;;;;;;0.00;0.00;;;;;;;;5066263;28;11422;-87
2022/10/17 07:09:38;;;;;;;;;0.00;0.00;;;;;;;;5061984;28;8875;-86
2022/10/17 07:12:06;;;;;;;;;0.00;0.00;;;;;;;;5057167;28;8896;-87
2022/10/17 07:14:32;;;;;;;;;0.00;0.00;;;;;;;;5065539;28;8828;-87
2022/10/17 07:16:57;;;;;;;;;0.00;0.00;;;;;;;;5054654;28;11438;-87
2022/10/17 07:19:23;;;;;;;;;0.00;0.00;;;;;;;;5052709;28;8898;-86
2022/10/17 07:21:48;;;;;;;;;0.00;0.00;;;;;;;;5053118;28;8833;-86
2022/10/17 07:24:13;;;;;;;;;0.00;0.00;;;;;;;;5052203;28;8819;-86
2022/10/17 07:26:38;;;;;;;;;0.00;0.00;;;;;;;;5053759;28;9546;-86
2022/10/17 07:29:05;;;;;;;;;0.00;0.00;;;;;;;;5052010;28;8870;-86
2022/10/17 07:31:30;;;;;;;;;0.00;0.00;;;;;;;;5037129;28;8807;-86
2022/10/17 07:33:57;;;;;;;;;0.00;0.00;;;;;;;;5052742;28;11462;-87
2022/10/17 07:36:23;;;;;;;;;0.00;0.00;;;;;;;;5051968;28;8823;-87
2022/10/17 07:38:48;;;;;;;;;0.00;0.00;;;;;;;;5063254;28;11469;-87
2022/10/17 07:41:13;;;;;;;;;0.00;0.00;;;;;;;;5035208;28;8835;-87
2022/10/17 07:43:40;;;;;;;;;3.00;3.00;;;;;;;;5052929;28;8862;-87
2022/10/17 07:46:07;;;;;;;;;0.00;0.00;;;;;;;;5051759;28;8803;-86
2022/10/17 07:48:32;;;;;;;;;0.00;0.00;;;;;;;;5065014;28;11406;-86
2022/10/17 07:51:00;;;;;;;;;0.00;0.00;;;;;;;;5056823;28;8857;-87
2022/10/17 07:53:25;;;;;;;;;0.00;0.00;;;;;;;;5057325;28;8778;-86
2022/10/17 07:55:51;;;;;;;;;0.00;0.00;;;;;;;;5056858;28;11430;-86
2022/10/17 07:58:16;;;;;;;;;0.00;0.00;;;;;;;;5062090;28;8805;-86
2022/10/17 08:00:41;;;;;;;;;0.00;0.00;;;;;;;;5052603;28;8835;-86
2022/10/17 08:03:07;;;;;;;;;0.00;0.00;;;;;;;;5063048;28;8908;-87
2022/10/17 08:05:32;;;;;;;;;0.00;0.00;;;;;;;;5062054;28;8831;-86
2022/10/17 08:07:58;;;;;;;;;0.00;0.00;;;;;;;;5041773;28;8927;-86
2022/10/17 08:10:28;;;;;;;;;0.00;0.00;;;;;;;;5060442;28;8926;-86
2022/10/17 08:12:53;;;;;;;;;0.00;0.00;;;;;;;;5060497;28;8823;-86
2022/10/17 08:15:18;;;;;;;;;0.00;0.00;;;;;;;;5061992;28;11366;-85
2022/10/17 08:17:44;;;;;;;;;0.00;0.00;;;;;;;;5059562;28;8881;-85
2022/10/17 08:20:09;;;;;;;;;0.00;0.00;;;;;;;;5057892;28;8852;-85
2022/10/17 08:22:34;;;;;;;;;0.00;0.00;;;;;;;;5065288;28;8889;-85
2022/10/17 08:24:59;;;;;;;;;0.00;0.00;;;;;;;;5057656;28;8813;-85
2022/10/17 08:27:26;;;;;;;;;0.00;0.00;;;;;;;;5054331;28;8807;-86
2022/10/17 08:29:52;;;;;;;;;0.00;0.00;;;;;;;;5058242;28;8866;-86
2022/10/17 08:32:19;;;;;;;;;0.00;0.00;;;;;;;;5059622;28;11452;-85
2022/10/17 08:34:44;;;;;;;;;1.67;1.67;;;;;;;;5069763;28;11408;-85
2022/10/17 08:37:09;;;;;;;;;0.67;0.67;;;;;;;;5055844;28;11445;-84
2022/10/17 08:39:34;;;;;;;;;0.00;0.00;;;;;;;;5051734;28;8843;-85
2022/10/17 08:42:08;;;;;;;;;0.00;0.00;;;;;;;;5065960;28;8906;-85
2022/10/17 08:44:39;;;;;;;;;0.00;0.00;;;;;;;;5054353;28;8881;-85
2022/10/17 08:47:09;;;;;;;;;0.00;0.00;;;;;;;;5062042;28;11423;-86
2022/10/17 08:49:51;;;;;;;;;0.00;0.00;;;;;;;;5058581;28;11592;-85
2022/10/17 08:52:25;;;;;;;;;0.00;0.00;;;;;;;;5063308;28;11576;-86
2022/10/17 08:54:51;;;;;;;;;0.00;0.00;;;;;;;;5041800;28;12416;-86
2022/10/17 08:57:16;;;;;;;;;0.00;0.00;;;;;;;;5063234;28;11559;-85
2022/10/17 08:59:49;;;;;;;;;0.00;0.00;;;;;;;;5057258;28;8871;-85
2022/10/17 09:02:14;;;;;;;;;0.00;0.00;;;;;;;;5063566;28;8811;-85
2022/10/17 09:04:42;;;;;;;;;0.00;0.00;;;;;;;;5068944;28;11469;-86
2022/10/17 09:07:07;;;;;;;;;0.00;0.00;;;;;;;;5055116;28;9893;-86
2022/10/17 09:09:38;;;;;;;;;0.00;0.00;;;;;;;;5057217;28;11442;-86
2022/10/17 09:12:13;;;;;;;;;0.00;0.00;;;;;;;;5036162;28;9806;-86
2022/10/17 09:14:57;;;;;;;;;0.00;0.00;;;;;;;;5043345;28;11420;-86
2022/10/17 09:17:31;;;;;;;;;0.00;0.00;;;;;;;;5061593;28;11529;-86
2022/10/17 09:19:56;;;;;;;;;0.00;0.00;;;;;;;;5031967;28;11438;-88
2022/10/17 09:22:23;;;;;;;;;0.00;0.00;;;;;;;;5062412;28;11573;-86
2022/10/17 09:24:58;;;;;;;;;0.00;0.00;;;;;;;;5043000;28;8876;-85
2022/10/17 09:27:23;;;;;;;;;0.00;0.00;;;;;;;;5062885;28;11401;-85
2022/10/17 09:29:51;;;;;;;;;0.00;0.00;;;;;;;;5066009;28;11445;-85
2022/10/17 09:32:18;;;;;;;;;0.00;0.00;;;;;;;;5067732;28;8783;-86
2022/10/17 09:34:43;;;;;;;;;0.00;0.00;;;;;;;;5070892;28;11441;-85
2022/10/17 09:37:11;;;;;;;;;0.00;0.00;;;;;;;;5060800;28;11425;-85
2022/10/17 09:39:37;;;;;;;;;0.00;0.00;;;;;;;;5042409;28;9564;-86
2022/10/17 09:42:02;;;;;;;;;0.00;0.00;;;;;;;;5052236;28;45480;-86
2022/10/17 09:44:30;;;;;;;;;0.00;0.00;;;;;;;;5053100;28;28502;-86
2022/10/17 09:47:01;;;;;;;;;0.00;0.00;;;;;;;;5041291;28;26209;-86
2022/10/17 09:49:34;;;;;;;;;0.00;0.00;;;;;;;;5056436;28;8807;-86
2022/10/17 09:52:00;;;;;;;;;0.00;0.00;;;;;;;;5049931;28;45959;-85
2022/10/17 09:54:28;;;;;;;;;0.00;0.00;;;;;;;;5032064;28;45377;-85
2022/10/17 09:57:07;;;;;;;;;0.00;0.00;;;;;;;;5044958;28;45327;-86
2022/10/17 09:59:40;;;;;;;;;0.00;0.00;;;;;;;;5020716;28;28743;-86
2022/10/17 10:02:08;;;;;;;;;0.00;0.00;;;;;;;;5044024;28;44731;-87
2022/10/17 10:04:33;;;;;;;;;0.00;0.00;;;;;;;;5029833;28;45446;-86
2022/10/17 10:07:03;;;;;;;;;0.00;0.00;;;;;;;;4992890;28;114002;-85
2022/10/17 10:09:32;;;;;;;;;0.00;0.00;;;;;;;;5027187;28;45359;-86
2022/10/17 10:12:00;;;;;;;;;0.00;0.00;;;;;;;;5019914;28;45527;-86
2022/10/17 10:14:28;;;;;;;;;0.00;0.00;;;;;;;;5030504;28;45370;-85
2022/10/17 10:16:53;;;;;;;;;0.00;0.00;;;;;;;;5016850;28;45481;-87
2022/10/17 10:19:29;;;;;;;;;0.00;0.00;;;;;;;;5005687;28;45475;-87
2022/10/17 10:21:56;;;;;;;;;0.00;0.00;;;;;;;;5047321;28;44803;-86
2022/10/17 10:24:22;;;;;;;;;0.00;0.00;;;;;;;;5030642;28;32139;-89
2022/10/17 10:26:48;;;;;;;;;0.00;0.00;;;;;;;;5047799;28;28326;-89
2022/10/17 10:29:23;;;;;;;;;0.00;0.00;;;;;;;;5027547;28;28624;-89
2022/10/17 10:31:48;;;;;;;;;0.00;0.00;;;;;;;;5041447;28;28549;-89
2022/10/17 10:34:16;;;;;;;;;0.00;0.00;;;;;;;;5048877;28;28692;-89
2022/10/17 10:36:47;;;;;;;;;0.00;0.00;;;;;;;;5044033;28;28560;-87
2022/10/17 10:39:22;;;;;;;;;0.00;0.00;;;;;;;;5041855;28;28515;-88
2022/10/17 10:41:47;;;;;;;;;0.00;0.00;;;;;;;;5040658;28;28676;-90
2022/10/17 10:44:14;;;;;;;;;0.00;0.00;;;;;;;;5042748;28;28451;-87
2022/10/17 10:46:39;;;;;;;;;0.00;0.00;;;;;;;;5027739;28;28391;-86
2022/10/17 10:49:24;;;;;;;;;0.00;0.00;;;;;;;;5046126;28;28487;-87
2022/10/17 10:51:50;;;;;;;;;0.00;0.00;;;;;;;;5036050;28;31216;-86
2022/10/17 10:54:18;;;;;;;;;0.00;0.00;;;;;;;;5043788;28;28565;-86
2022/10/17 10:56:52;;;;;;;;;0.00;0.00;;;;;;;;5045987;28;28571;-86
2022/10/17 10:59:28;;;;;;;;;0.00;0.00;;;;;;;;5051129;28;28692;-86
2022/10/17 11:02:11;;;;;;;;;0.00;0.00;;;;;;;;5037830;28;29221;-86
2022/10/17 11:04:43;;;;;;;;;0.00;0.00;;;;;;;;5037441;28;28524;-87
2022/10/17 11:07:14;;;;;;;;;0.00;0.00;;;;;;;;5040742;28;28377;-87
2022/10/17 11:09:46;;;;;;;;;0.00;0.00;;;;;;;;5036352;28;28632;-86
2022/10/17 11:12:26;;;;;;;;;0.00;0.00;;;;;;;;5034622;28;28673;-87
2022/10/17 11:15:01;;;;;;;;;0.00;0.00;;;;;;;;5050436;28;42438;-86
2022/10/17 11:17:27;;;;;;;;;0.00;0.00;;;;;;;;5046330;28;27868;-87
2022/10/17 11:19:59;;;;;;;;;0.00;0.00;;;;;;;;5039901;28;28445;-86
2022/10/17 11:22:33;;;;;;;;;0.00;0.00;;;;;;;;5035137;28;28667;-87
2022/10/17 11:25:02;;;;;;;;;0.00;0.00;;;;;;;;5042424;28;28547;-87
2022/10/17 11:27:28;;;;;;;;;0.00;0.00;;;;;;;;5027003;28;45491;-87
2022/10/17 11:29:53;;;;;;;;;0.00;0.00;;;;;;;;5057786;28;8867;-86
2022/10/17 11:32:24;;;;;;;;;0.00;0.00;;;;;;;;5054257;28;8870;-86
2022/10/17 11:34:52;;;;;;;;;0.00;0.00;;;;;;;;5063551;28;27748;-85
2022/10/17 11:37:21;;;;;;;;;0.00;0.00;;;;;;;;5036764;28;28813;-86
2022/10/17 11:39:48;;;;;;;;;0.00;0.00;;;;;;;;5037903;28;28575;-85
2022/10/17 11:42:33;;;;;;;;;0.00;0.00;;;;;;;;5029617;28;31348;-85
2022/10/17 11:45:06;;;;;;;;;0.00;0.00;;;;;;;;5033130;28;28830;-86
2022/10/17 11:47:31;;;;;;;;;0.00;0.00;;;;;;;;5034239;28;28888;-86
2022/10/17 11:50:15;;;;;;;;;25.00;25.00;;;;;;;;5031535;28;28539;-86
2022/10/17 11:52:47;;;;;;;;;0.00;0.00;;;;;;;;5028683;28;31267;-86
2022/10/17 11:55:23;;;;;;;;;0.00;0.00;;;;;;;;5060543;28;9607;-87
2022/10/17 11:57:53;;;;;;;;;0.00;0.00;;;;;;;;5055451;28;28495;-87
2022/10/17 12:00:37;;;;;;;;;0.00;0.00;;;;;;;;5063903;28;11409;-86
2022/10/17 12:03:21;;;;;;;;;0.00;0.00;;;;;;;;5060306;28;27184;-86
2022/10/17 12:05:49;;;;;;;;;0.00;0.00;;;;;;;;5056184;28;21412;-87
2022/10/17 12:08:27;;;;;;;;;0.00;0.00;;;;;;;;5052532;28;10840;-87
2022/10/17 12:11:11;;;;;;;;;0.00;0.00;;;;;;;;5060938;28;11474;-87
2022/10/17 12:13:36;;;;;;;;;0.00;0.00;;;;;;;;5065520;28;11475;-87
2022/10/17 12:16:33;;;;;;;;;0.00;0.00;;;;;;;;5061372;28;38278;-88
2022/10/17 12:19:01;;;;;;;;;0.00;0.00;;;;;;;;5042938;28;27816;-86
2022/10/17 12:21:27;;;;;;;;;0.00;0.00;;;;;;;;5066184;28;40333;-88
2022/10/17 12:23:54;;;;;;;;;0.00;0.00;;;;;;;;5042103;28;8918;-88
2022/10/17 12:26:26;;;;;;;;;0.00;0.00;;;;;;;;5065563;28;11458;-89
2022/10/17 12:28:51;;;;;;;;;0.00;0.00;;;;;;;;5062007;28;11445;-89
2022/10/17 12:31:17;;;;;;;;;0.00;0.00;;;;;;;;5045640;28;11457;-89
2022/10/17 12:33:48;;;;;;;;;0.00;0.00;;;;;;;;5056119;28;28999;-89
2022/10/17 12:36:26;;;;;;;;;0.00;0.00;;;;;;;;5046940;28;14708;-90
2022/10/17 12:38:51;;;;;;;;;0.00;0.00;;;;;;;;5058619;28;11405;-89
2022/10/17 12:41:36;;;;;;;;;0.00;0.00;;;;;;;;5043676;28;11444;-88
2022/10/17 12:44:01;;;;;;;;;0.00;0.00;;;;;;;;5071575;28;9738;-89
2022/10/17 12:46:53;;;;;;;;;0.00;0.00;;;;;;;;5053663;28;11444;-89
2022/10/17 12:49:18;;;;;;;;;0.00;0.00;;;;;;;;4968601;28;8839;-89
2022/10/17 12:52:03;;;;;;;;;0.00;0.00;;;;;;;;4970794;28;11570;-90
2022/10/17 12:54:30;;;;;;;;;0.00;0.00;;;;;;;;4975660;28;8915;-89
2022/10/17 12:56:56;;;;;;;;;0.00;0.00;;;;;;;;4975986;28;11593;-90
2022/10/17 12:59:26;;;;;;;;;0.00;0.00;;;;;;;;4966785;28;11641;-89
2022/10/17 13:02:00;;;;;;;;;0.00;0.00;;;;;;;;4949694;28;44704;-90
2022/10/17 13:04:27;;;;;;;;;0.00;0.00;;;;;;;;4980910;28;11550;-89
2022/10/17 13:06:54;;;;;;;;;0.00;0.00;;;;;;;;4984329;28;11534;-91
2022/10/17 13:09:19;;;;;;;;;0.00;0.00;;;;;;;;4963313;28;11570;-93
2022/10/17 13:11:45;;;;;;;;;0.00;0.00;;;;;;;;4957240;28;28320;-91
2022/10/17 13:14:11;;;;;;;;;0.00;0.00;;;;;;;;4965191;28;28387;-90
2022/10/17 13:16:38;;;;;;;;;0.00;0.00;;;;;;;;4955409;28;27882;-92
2022/10/17 13:19:11;;;;;;;;;0.00;0.00;;;;;;;;4962675;28;29743;-92
2022/10/17 13:21:36;;;;;;;;;0.00;0.00;;;;;;;;4972783;28;25017;-93
2022/10/17 13:24:18;;;;;;;;;0.00;0.00;;;;;;;;4961111;28;28839;-92
2022/10/17 13:26:44;;;;;;;;;0.00;0.00;;;;;;;;5030119;28;28764;-91
2022/10/17 13:29:10;;;;;;;;;0.00;0.00;;;;;;;;5030370;28;28469;-91
2022/10/17 13:31:37;;;;;;;;;0.00;0.00;;;;;;;;5045351;28;28539;-90
2022/10/17 13:34:04;;;;;;;;;0.00;0.00;;;;;;;;5046480;28;28708;-89
2022/10/17 13:36:30;;;;;;;;;0.00;0.00;;;;;;;;5024562;28;28668;-89
2022/10/17 13:38:57;;;;;;;;;0.00;0.00;;;;;;;;5024594;28;28413;-90
2022/10/17 13:41:25;;;;;;;;;0.00;0.00;;;;;;;;5043885;28;28760;-89
2022/10/17 13:43:50;;;;;;;;;0.00;0.00;;;;;;;;5042482;28;39541;-90
2022/10/17 13:46:22;;;;;;;;;0.00;0.00;;;;;;;;5019367;28;28982;-90
2022/10/17 13:48:48;;;;;;;;;0.00;0.00;;;;;;;;5017871;28;29995;-90
2022/10/17 13:51:13;;;;;;;;;0.00;0.00;;;;;;;;5041145;28;28417;-90
2022/10/17 13:53:41;;;;;;;;;0.00;0.00;;;;;;;;5059302;28;28322;-90
2022/10/17 13:56:09;;;;;;;;;0.00;0.00;;;;;;;;5056388;28;27733;-89
2022/10/17 13:58:40;;;;;;;;;0.00;0.00;;;;;;;;5038104;28;28469;-89
2022/10/17 14:01:07;;;;;;;;;0.00;0.00;;;;;;;;5034794;28;29183;-90
2022/10/17 14:03:32;;;;;;;;;0.00;0.00;;;;;;;;5045543;28;11469;-90
2022/10/17 14:06:15;;;;;;;;;0.00;0.00;;;;;;;;5032507;28;27833;-89
2022/10/17 14:08:47;;;;;;;;;0.00;0.00;;;;;;;;5028058;28;28548;-89
2022/10/17 14:11:14;;;;;;;;;0.00;0.00;;;;;;;;5048024;28;28544;-88
2022/10/17 14:13:40;;;;;;;;;0.00;0.00;;;;;;;;5028734;28;30468;-89
2022/10/17 14:16:07;;;;;;;;;0.00;0.00;;;;;;;;5059688;28;27655;-89
2022/10/17 14:18:34;;;;;;;;;0.00;0.00;;;;;;;;5066095;28;8906;-89
2022/10/17 14:20:59;;;;;;;;;0.00;0.00;;;;;;;;5047547;28;11429;-94
2022/10/17 14:23:27;;;;;;;;;0.00;0.00;;;;;;;;5038751;28;12299;-91
2022/10/17 14:26:03;;;;;;;;;0.00;0.00;;;;;;;;5051895;28;28436;-88
2022/10/17 14:28:28;;;;;;;;;0.00;0.00;;;;;;;;5044477;28;28472;-86
2022/10/17 14:31:07;;;;;;;;;0.00;0.00;;;;;;;;5026542;28;28581;-89
2022/10/17 14:33:33;;;;;;;;;0.00;0.00;;;;;;;;5024149;28;29800;-89
2022/10/17 14:36:00;;;;;;;;;0.00;0.00;;;;;;;;5062749;28;28529;-88
2022/10/17 14:38:26;;;;;;;;;0.00;0.00;;;;;;;;5063183;28;28406;-88
2022/10/17 14:40:55;;;;;;;;;0.00;0.00;;;;;;;;5056472;28;28513;-88
2022/10/17 14:43:22;;;;;;;;;0.00;0.00;;;;;;;;5053134;28;28444;-89
2022/10/17 14:45:47;;;;;;;;;0.00;0.00;;;;;;;;5042016;28;28509;-88
2022/10/17 14:48:14;;;;;;;;;0.00;0.00;;;;;;;;5048688;28;28567;-89
2022/10/17 14:50:40;;;;;;;;;0.00;0.00;;;;;;;;5044365;28;28488;-89
2022/10/17 14:53:09;;;;;;;;;0.00;0.00;;;;;;;;5048888;28;29413;-88
2022/10/17 14:55:34;;;;;;;;;0.00;0.00;;;;;;;;5040535;28;28826;-89